sensor_id;sensor_type;location;lat;lon;timestamp;temperature;humidity
18434;DHT22;9344;52.294;13.626;2022-12-11T00:01:46;0.90;99.90
18434;DHT22;9344;52.294;13.626;2022-12-11T00:04:13;0.60;99.90
18434;DHT22;9344;52.294;13.626;2022-12-11T00:06:39;1.30;99.90
18434;DHT22;9344;52.294;13.626;2022-12-11T00:09:06;0.60;99.90
18434;DHT22;9344;52.294;13.626;2022-12-11T00:11:33;0.60;99.90
18434;DHT22;9344;52.294;13.626;2022-12-11T00:13:59;-0.10;99.90
18434;DHT22;9344;52.294;13.626;2022-12-11T00:16:27;0.60;99.90
18434;DHT22;9344;52.294;13.626;2022-12-11T00:18:54;0.60;99.90
18434;DHT22;9344;52.294;13.626;2022-12-11T00:21:20;0.60;99.90
18434;DHT22;9344;52.294;13.626;2022-12-11T00:23:47;0.60;99.90
18434;DHT22;9344;52.294;13.626;2022-12-11T00:26:14;0.60;99.90
18434;DHT22;9344;52.294;13.626;2022-12-11T00:28:41;0.70;99.90
18434;DHT22;9344;52.294;13.626;2022-12-11T00:31:12;0.70;99.90
18434;DHT22;9344;52.294;13.626;2022-12-11T00:33:40;0.70;99.90
18434;DHT22;9344;52.294;13.626;2022-12-11T00:36:11;0.70;99.90
18434;DHT22;9344;52.294;13.626;2022-12-11T00:38:37;0.70;99.90
18434;DHT22;9344;52.294;13.626;2022-12-11T00:41:04;0.60;99.90
18434;DHT22;9344;52.294;13.626;2022-12-11T00:43:31;1.60;99.90
18434;DHT22;9344;52.294;13.626;2022-12-11T00:45:57;0.60;99.90
18434;DHT22;9344;52.294;13.626;2022-12-11T00:48:24;0.60;99.90
18434;DHT22;9344;52.294;13.626;2022-12-11T00:50:52;0.60;99.90
18434;DHT22;9344;52.294;13.626;2022-12-11T00:53:18;1.30;99.90
18434;DHT22;9344;52.294;13.626;2022-12-11T00:55:45;0.60;99.90
18434;DHT22;9344;52.294;13.626;2022-12-11T00:58:12;0.50;99.90
18434;DHT22;9344;52.294;13.626;2022-12-11T01:00:39;0.50;99.90
18434;DHT22;9344;52.294;13.626;2022-12-11T01:03:06;0.90;99.90
18434;DHT22;9344;52.294;13.626;2022-12-11T01:05:33;1.50;99.90
18434;DHT22;9344;52.294;13.626;2022-12-11T01:08:01;0.50;99.90
18434;DHT22;9344;52.294;13.626;2022-12-11T01:10:27;0.40;99.90
18434;DHT22;9344;52.294;13.626;2022-12-11T01:12:55;1.40;99.90
18434;DHT22;9344;52.294;13.626;2022-12-11T01:15:24;0.30;99.90
18434;DHT22;9344;52.294;13.626;2022-12-11T01:17:51;0.30;99.90
18434;DHT22;9344;52.294;13.626;2022-12-11T01:20:20;0.20;99.90
18434;DHT22;9344;52.294;13.626;2022-12-11T01:22:47;0.30;99.90
18434;DHT22;9344;52.294;13.626;2022-12-11T01:25:15;0.30;99.90
18434;DHT22;9344;52.294;13.626;2022-12-11T01:27:41;0.30;99.90
18434;DHT22;9344;52.294;13.626;2022-12-11T01:30:08;0.80;99.90
18434;DHT22;9344;52.294;13.626;2022-12-11T01:32:35;0.20;99.90
18434;DHT22;9344;52.294;13.626;2022-12-11T01:35:03;0.80;99.90
18434;DHT22;9344;52.294;13.626;2022-12-11T01:37:30;0.20;99.90
18434;DHT22;9344;52.294;13.626;2022-12-11T01:39:56;0.90;99.90
18434;DHT22;9344;52.294;13.626;2022-12-11T01:42:24;0.10;99.90
18434;DHT22;9344;52.294;13.626;2022-12-11T01:45:38;0.10;99.90
18434;DHT22;9344;52.294;13.626;2022-12-11T01:48:08;0.10;99.90
18434;DHT22;9344;52.294;13.626;2022-12-11T01:50:40;0.20;99.90
18434;DHT22;9344;52.294;13.626;2022-12-11T01:53:10;0.10;99.90
18434;DHT22;9344;52.294;13.626;2022-12-11T01:55:38;0.10;99.90
18434;DHT22;9344;52.294;13.626;2022-12-11T01:58:07;0.70;99.90
18434;DHT22;9344;52.294;13.626;2022-12-11T02:00:35;0.10;99.90
18434;DHT22;9344;52.294;13.626;2022-12-11T02:03:02;0.10;99.90
18434;DHT22;9344;52.294;13.626;2022-12-11T02:05:29;0.00;99.90
18434;DHT22;9344;52.294;13.626;2022-12-11T02:07:57;0.00;99.90
18434;DHT22;9344;52.294;13.626;2022-12-11T02:10:34;0.00;99.90
18434;DHT22;9344;52.294;13.626;2022-12-11T02:13:12;0.00;99.90
18434;DHT22;9344;52.294;13.626;2022-12-11T02:15:46;-0.10;99.90
18434;DHT22;9344;52.294;13.626;2022-12-11T02:18:19;-0.10;99.90
18434;DHT22;9344;52.294;13.626;2022-12-11T02:20:51;-0.10;99.90
18434;DHT22;9344;52.294;13.626;2022-12-11T02:23:52;-0.10;99.90
18434;DHT22;9344;52.294;13.626;2022-12-11T02:26:53;-0.10;99.90
18434;DHT22;9344;52.294;13.626;2022-12-11T02:29:28;-0.20;99.90
18434;DHT22;9344;52.294;13.626;2022-12-11T02:32:00;-0.20;99.90
18434;DHT22;9344;52.294;13.626;2022-12-11T02:34:32;-0.20;99.90
18434;DHT22;9344;52.294;13.626;2022-12-11T02:37:03;-0.20;99.90
18434;DHT22;9344;52.294;13.626;2022-12-11T02:39:32;-0.20;99.90
18434;DHT22;9344;52.294;13.626;2022-12-11T02:42:02;-0.20;99.90
18434;DHT22;9344;52.294;13.626;2022-12-11T02:44:33;-0.20;99.90
18434;DHT22;9344;52.294;13.626;2022-12-11T02:47:02;-0.30;99.90
18434;DHT22;9344;52.294;13.626;2022-12-11T02:49:30;-0.40;99.90
18434;DHT22;9344;52.294;13.626;2022-12-11T02:52:01;-0.30;99.90
18434;DHT22;9344;52.294;13.626;2022-12-11T02:54:30;-0.40;99.90
18434;DHT22;9344;52.294;13.626;2022-12-11T02:57:01;-0.30;99.90
18434;DHT22;9344;52.294;13.626;2022-12-11T02:59:34;-0.30;99.90
18434;DHT22;9344;52.294;13.626;2022-12-11T03:02:01;-0.40;99.90
18434;DHT22;9344;52.294;13.626;2022-12-11T03:04:28;-0.30;99.90
18434;DHT22;9344;52.294;13.626;2022-12-11T03:06:58;-1.30;99.90
18434;DHT22;9344;52.294;13.626;2022-12-11T03:09:27;-0.40;99.90
18434;DHT22;9344;52.294;13.626;2022-12-11T03:11:54;-2.10;99.90
18434;DHT22;9344;52.294;13.626;2022-12-11T03:14:20;-0.40;99.90
18434;DHT22;9344;52.294;13.626;2022-12-11T03:16:52;-0.40;99.90
18434;DHT22;9344;52.294;13.626;2022-12-11T03:19:27;-0.40;99.90
18434;DHT22;9344;52.294;13.626;2022-12-11T03:22:01;-0.40;99.90
18434;DHT22;9344;52.294;13.626;2022-12-11T03:24:31;-0.50;99.90
18434;DHT22;9344;52.294;13.626;2022-12-11T03:27:06;-0.50;99.90
18434;DHT22;9344;52.294;13.626;2022-12-11T03:29:36;-0.50;99.90
18434;DHT22;9344;52.294;13.626;2022-12-11T03:32:09;-0.50;99.90
18434;DHT22;9344;52.294;13.626;2022-12-11T03:34:41;-0.60;99.90
18434;DHT22;9344;52.294;13.626;2022-12-11T03:37:10;-0.60;99.90
18434;DHT22;9344;52.294;13.626;2022-12-11T03:39:42;-0.60;99.90
18434;DHT22;9344;52.294;13.626;2022-12-11T03:42:12;-0.60;99.90
18434;DHT22;9344;52.294;13.626;2022-12-11T03:44:41;-0.60;99.90
18434;DHT22;9344;52.294;13.626;2022-12-11T03:47:11;-0.70;99.90
18434;DHT22;9344;52.294;13.626;2022-12-11T03:49:41;-0.60;99.90
18434;DHT22;9344;52.294;13.626;2022-12-11T03:52:11;-0.60;99.90
18434;DHT22;9344;52.294;13.626;2022-12-11T03:54:40;0.00;99.90
18434;DHT22;9344;52.294;13.626;2022-12-11T03:57:10;-0.40;99.90
18434;DHT22;9344;52.294;13.626;2022-12-11T03:59:37;-0.60;99.90
18434;DHT22;9344;52.294;13.626;2022-12-11T04:02:04;-0.60;99.90
18434;DHT22;9344;52.294;13.626;2022-12-11T04:04:36;-0.70;99.90
18434;DHT22;9344;52.294;13.626;2022-12-11T04:07:03;-0.70;99.90
18434;DHT22;9344;52.294;13.626;2022-12-11T04:09:30;0.60;99.90
18434;DHT22;9344;52.294;13.626;2022-12-11T04:11:56;-0.60;99.90
18434;DHT22;9344;52.294;13.626;2022-12-11T04:14:23;-0.60;99.90
18434;DHT22;9344;52.294;13.626;2022-12-11T04:17:07;-0.60;99.90
18434;DHT22;9344;52.294;13.626;2022-12-11T04:19:35;-0.60;99.90
18434;DHT22;9344;52.294;13.626;2022-12-11T04:22:20;-0.60;99.90
18434;DHT22;9344;52.294;13.626;2022-12-11T04:25:06;-0.70;99.90
18434;DHT22;9344;52.294;13.626;2022-12-11T04:27:32;-0.70;99.90
18434;DHT22;9344;52.294;13.626;2022-12-11T04:30:16;-0.70;99.90
18434;DHT22;9344;52.294;13.626;2022-12-11T04:32:44;-0.70;99.90
18434;DHT22;9344;52.294;13.626;2022-12-11T04:35:12;-0.70;99.90
18434;DHT22;9344;52.294;13.626;2022-12-11T04:37:40;-0.70;99.90
18434;DHT22;9344;52.294;13.626;2022-12-11T04:40:09;-0.70;99.90
18434;DHT22;9344;52.294;13.626;2022-12-11T04:42:36;-0.70;99.90
18434;DHT22;9344;52.294;13.626;2022-12-11T04:45:04;-0.80;99.90
18434;DHT22;9344;52.294;13.626;2022-12-11T04:47:33;-0.80;99.90
18434;DHT22;9344;52.294;13.626;2022-12-11T04:49:59;-0.80;99.90
18434;DHT22;9344;52.294;13.626;2022-12-11T04:52:27;-0.80;99.90
18434;DHT22;9344;52.294;13.626;2022-12-11T04:54:54;-0.60;99.90
18434;DHT22;9344;52.294;13.626;2022-12-11T04:57:20;-0.80;99.90
18434;DHT22;9344;52.294;13.626;2022-12-11T04:59:47;-0.90;99.90
18434;DHT22;9344;52.294;13.626;2022-12-11T05:02:14;-0.50;99.90
18434;DHT22;9344;52.294;13.626;2022-12-11T05:04:41;-0.90;99.90
18434;DHT22;9344;52.294;13.626;2022-12-11T05:07:08;-0.90;99.90
18434;DHT22;9344;52.294;13.626;2022-12-11T05:09:36;-0.40;99.90
18434;DHT22;9344;52.294;13.626;2022-12-11T05:12:03;-0.80;99.90
18434;DHT22;9344;52.294;13.626;2022-12-11T05:14:29;-0.90;99.90
18434;DHT22;9344;52.294;13.626;2022-12-11T05:16:56;-0.90;99.90
18434;DHT22;9344;52.294;13.626;2022-12-11T05:19:23;-0.90;99.90
18434;DHT22;9344;52.294;13.626;2022-12-11T05:21:50;-1.00;99.90
18434;DHT22;9344;52.294;13.626;2022-12-11T05:24:16;-0.70;99.90
18434;DHT22;9344;52.294;13.626;2022-12-11T05:26:44;-1.00;99.90
18434;DHT22;9344;52.294;13.626;2022-12-11T05:29:10;-0.40;99.90
18434;DHT22;9344;52.294;13.626;2022-12-11T05:31:37;-0.80;99.90
18434;DHT22;9344;52.294;13.626;2022-12-11T05:34:04;-0.70;99.90
18434;DHT22;9344;52.294;13.626;2022-12-11T05:36:32;-0.90;99.90
18434;DHT22;9344;52.294;13.626;2022-12-11T05:39:00;-0.40;99.90
18434;DHT22;9344;52.294;13.626;2022-12-11T05:41:28;-1.00;99.90
18434;DHT22;9344;52.294;13.626;2022-12-11T05:43:56;-0.90;99.90
18434;DHT22;9344;52.294;13.626;2022-12-11T05:46:24;-1.00;99.90
18434;DHT22;9344;52.294;13.626;2022-12-11T05:48:53;-0.90;99.90
18434;DHT22;9344;52.294;13.626;2022-12-11T05:51:20;-1.00;99.90
18434;DHT22;9344;52.294;13.626;2022-12-11T05:53:49;-0.90;99.90
18434;DHT22;9344;52.294;13.626;2022-12-11T05:56:17;-1.00;99.90
18434;DHT22;9344;52.294;13.626;2022-12-11T05:58:45;-1.00;99.90
18434;DHT22;9344;52.294;13.626;2022-12-11T06:01:15;-0.90;99.90
18434;DHT22;9344;52.294;13.626;2022-12-11T06:03:43;-0.90;99.90
18434;DHT22;9344;52.294;13.626;2022-12-11T06:06:09;-0.90;99.90
18434;DHT22;9344;52.294;13.626;2022-12-11T06:08:36;-0.90;99.90
18434;DHT22;9344;52.294;13.626;2022-12-11T06:11:03;-0.90;99.90
18434;DHT22;9344;52.294;13.626;2022-12-11T06:13:30;-0.90;99.90
18434;DHT22;9344;52.294;13.626;2022-12-11T06:15:59;-0.80;99.90
18434;DHT22;9344;52.294;13.626;2022-12-11T06:18:27;-0.80;99.90
18434;DHT22;9344;52.294;13.626;2022-12-11T06:20:54;-0.80;99.90
18434;DHT22;9344;52.294;13.626;2022-12-11T06:23:20;0.00;99.90
18434;DHT22;9344;52.294;13.626;2022-12-11T06:25:47;-0.80;99.90
18434;DHT22;9344;52.294;13.626;2022-12-11T06:28:13;-0.40;99.90
18434;DHT22;9344;52.294;13.626;2022-12-11T06:30:40;-0.30;99.90
18434;DHT22;9344;52.294;13.626;2022-12-11T06:33:06;-0.10;99.90
18434;DHT22;9344;52.294;13.626;2022-12-11T06:35:34;-0.70;99.90
18434;DHT22;9344;52.294;13.626;2022-12-11T06:38:00;-0.30;99.90
18434;DHT22;9344;52.294;13.626;2022-12-11T06:40:27;-0.50;99.90
18434;DHT22;9344;52.294;13.626;2022-12-11T06:42:54;-0.40;99.90
18434;DHT22;9344;52.294;13.626;2022-12-11T06:45:20;-0.40;99.90
18434;DHT22;9344;52.294;13.626;2022-12-11T06:47:47;-0.50;99.90
18434;DHT22;9344;52.294;13.626;2022-12-11T06:50:13;-0.40;99.90
18434;DHT22;9344;52.294;13.626;2022-12-11T06:52:41;-0.40;99.90
18434;DHT22;9344;52.294;13.626;2022-12-11T06:55:08;-0.40;99.90
18434;DHT22;9344;52.294;13.626;2022-12-11T06:57:35;-0.30;99.90
18434;DHT22;9344;52.294;13.626;2022-12-11T07:00:01;-0.40;99.90
18434;DHT22;9344;52.294;13.626;2022-12-11T07:02:28;-0.40;99.90
18434;DHT22;9344;52.294;13.626;2022-12-11T07:04:54;-0.40;99.90
18434;DHT22;9344;52.294;13.626;2022-12-11T07:07:21;-0.50;99.90
18434;DHT22;9344;52.294;13.626;2022-12-11T07:09:49;-0.50;99.90
18434;DHT22;9344;52.294;13.626;2022-12-11T07:12:16;-0.50;99.90
18434;DHT22;9344;52.294;13.626;2022-12-11T07:14:42;-0.20;99.90
18434;DHT22;9344;52.294;13.626;2022-12-11T07:17:09;0.20;99.90
18434;DHT22;9344;52.294;13.626;2022-12-11T07:19:36;0.20;99.90
18434;DHT22;9344;52.294;13.626;2022-12-11T07:22:02;-0.50;99.90
18434;DHT22;9344;52.294;13.626;2022-12-11T07:24:29;-0.50;99.90
18434;DHT22;9344;52.294;13.626;2022-12-11T07:26:57;-0.40;99.90
18434;DHT22;9344;52.294;13.626;2022-12-11T07:29:23;-0.40;99.90
18434;DHT22;9344;52.294;13.626;2022-12-11T07:31:50;0.90;99.90
18434;DHT22;9344;52.294;13.626;2022-12-11T07:34:16;-0.10;99.90
18434;DHT22;9344;52.294;13.626;2022-12-11T07:36:43;-0.30;99.90
18434;DHT22;9344;52.294;13.626;2022-12-11T07:39:10;-0.30;99.90
18434;DHT22;9344;52.294;13.626;2022-12-11T07:41:37;0.00;99.90
18434;DHT22;9344;52.294;13.626;2022-12-11T07:44:05;-0.40;99.90
18434;DHT22;9344;52.294;13.626;2022-12-11T07:46:32;-0.40;99.90
18434;DHT22;9344;52.294;13.626;2022-12-11T07:48:59;-0.40;99.90
18434;DHT22;9344;52.294;13.626;2022-12-11T07:51:27;0.10;99.90
18434;DHT22;9344;52.294;13.626;2022-12-11T07:53:56;-0.50;99.90
18434;DHT22;9344;52.294;13.626;2022-12-11T07:56:23;-0.50;99.90
18434;DHT22;9344;52.294;13.626;2022-12-11T07:58:49;-0.60;99.90
18434;DHT22;9344;52.294;13.626;2022-12-11T08:01:19;-0.50;99.90
18434;DHT22;9344;52.294;13.626;2022-12-11T08:03:46;-0.70;99.90
18434;DHT22;9344;52.294;13.626;2022-12-11T08:06:13;-0.60;99.90
18434;DHT22;9344;52.294;13.626;2022-12-11T08:08:40;-0.80;99.90
18434;DHT22;9344;52.294;13.626;2022-12-11T08:11:09;-0.90;99.90
18434;DHT22;9344;52.294;13.626;2022-12-11T08:13:36;-0.70;99.90
18434;DHT22;9344;52.294;13.626;2022-12-11T08:16:03;-0.80;99.90
18434;DHT22;9344;52.294;13.626;2022-12-11T08:18:31;-0.80;99.90
18434;DHT22;9344;52.294;13.626;2022-12-11T08:20:58;-0.80;99.90
18434;DHT22;9344;52.294;13.626;2022-12-11T08:23:25;-0.80;99.90
18434;DHT22;9344;52.294;13.626;2022-12-11T08:25:51;-0.90;99.90
18434;DHT22;9344;52.294;13.626;2022-12-11T08:28:18;-0.70;99.90
18434;DHT22;9344;52.294;13.626;2022-12-11T08:30:44;0.00;99.90
18434;DHT22;9344;52.294;13.626;2022-12-11T08:33:11;-0.70;99.90
18434;DHT22;9344;52.294;13.626;2022-12-11T08:35:39;-0.60;99.90
18434;DHT22;9344;52.294;13.626;2022-12-11T08:38:06;-0.60;99.90
18434;DHT22;9344;52.294;13.626;2022-12-11T08:40:32;-0.70;99.90
18434;DHT22;9344;52.294;13.626;2022-12-11T08:42:59;-0.60;99.90
18434;DHT22;9344;52.294;13.626;2022-12-11T08:45:25;-0.60;99.90
18434;DHT22;9344;52.294;13.626;2022-12-11T08:47:52;-0.70;99.90
18434;DHT22;9344;52.294;13.626;2022-12-11T08:50:19;-0.60;99.90
18434;DHT22;9344;52.294;13.626;2022-12-11T08:52:46;-0.70;99.90
18434;DHT22;9344;52.294;13.626;2022-12-11T08:55:13;0.00;99.90
18434;DHT22;9344;52.294;13.626;2022-12-11T08:57:40;-0.80;99.90
18434;DHT22;9344;52.294;13.626;2022-12-11T09:00:08;-0.80;99.90
18434;DHT22;9344;52.294;13.626;2022-12-11T09:02:37;-0.90;99.90
18434;DHT22;9344;52.294;13.626;2022-12-11T09:05:04;0.50;99.90
18434;DHT22;9344;52.294;13.626;2022-12-11T09:07:32;-0.80;99.90
18434;DHT22;9344;52.294;13.626;2022-12-11T09:10:00;-0.70;99.90
18434;DHT22;9344;52.294;13.626;2022-12-11T09:12:27;-0.70;99.90
18434;DHT22;9344;52.294;13.626;2022-12-11T09:14:54;-0.80;99.90
18434;DHT22;9344;52.294;13.626;2022-12-11T09:17:20;-0.80;99.90
18434;DHT22;9344;52.294;13.626;2022-12-11T09:19:47;-0.50;99.90
18434;DHT22;9344;52.294;13.626;2022-12-11T09:22:13;-0.80;99.90
18434;DHT22;9344;52.294;13.626;2022-12-11T09:24:40;-0.70;99.90
18434;DHT22;9344;52.294;13.626;2022-12-11T09:27:08;-0.70;99.90
18434;DHT22;9344;52.294;13.626;2022-12-11T09:29:35;-0.80;99.90
18434;DHT22;9344;52.294;13.626;2022-12-11T09:32:01;-0.80;99.90
18434;DHT22;9344;52.294;13.626;2022-12-11T09:34:28;-0.80;99.90
18434;DHT22;9344;52.294;13.626;2022-12-11T09:36:54;-0.80;99.90
18434;DHT22;9344;52.294;13.626;2022-12-11T09:39:21;-0.30;99.90
18434;DHT22;9344;52.294;13.626;2022-12-11T09:41:53;-0.80;99.90
18434;DHT22;9344;52.294;13.626;2022-12-11T09:44:30;-0.80;99.90
18434;DHT22;9344;52.294;13.626;2022-12-11T09:46:58;-0.70;99.90
18434;DHT22;9344;52.294;13.626;2022-12-11T09:49:27;-0.70;99.90
18434;DHT22;9344;52.294;13.626;2022-12-11T09:52:09;-0.70;99.90
18434;DHT22;9344;52.294;13.626;2022-12-11T09:54:44;-0.70;99.90
18434;DHT22;9344;52.294;13.626;2022-12-11T09:57:21;-0.70;99.90
18434;DHT22;9344;52.294;13.626;2022-12-11T10:00:05;-0.70;99.90
18434;DHT22;9344;52.294;13.626;2022-12-11T10:02:47;-0.70;99.90
18434;DHT22;9344;52.294;13.626;2022-12-11T10:05:24;-0.70;99.90
18434;DHT22;9344;52.294;13.626;2022-12-11T10:07:59;-0.60;99.90
18434;DHT22;9344;52.294;13.626;2022-12-11T10:10:35;-0.70;99.90
18434;DHT22;9344;52.294;13.626;2022-12-11T10:13:05;-0.70;99.90
18434;DHT22;9344;52.294;13.626;2022-12-11T10:15:41;-0.60;99.90
18434;DHT22;9344;52.294;13.626;2022-12-11T10:18:12;-0.70;99.90
18434;DHT22;9344;52.294;13.626;2022-12-11T10:20:41;-0.60;99.90
18434;DHT22;9344;52.294;13.626;2022-12-11T10:23:15;-0.40;99.90
18434;DHT22;9344;52.294;13.626;2022-12-11T10:25:46;-0.70;99.90
18434;DHT22;9344;52.294;13.626;2022-12-11T10:28:18;-0.70;99.90
18434;DHT22;9344;52.294;13.626;2022-12-11T10:30:49;-0.60;99.90
18434;DHT22;9344;52.294;13.626;2022-12-11T10:33:20;-0.60;99.90
18434;DHT22;9344;52.294;13.626;2022-12-11T10:35:49;-0.60;99.90
18434;DHT22;9344;52.294;13.626;2022-12-11T10:38:23;-0.50;99.90
18434;DHT22;9344;52.294;13.626;2022-12-11T10:40:55;-0.50;99.90
18434;DHT22;9344;52.294;13.626;2022-12-11T10:43:32;-0.40;99.90
18434;DHT22;9344;52.294;13.626;2022-12-11T10:46:00;-0.40;99.90
18434;DHT22;9344;52.294;13.626;2022-12-11T10:48:39;-0.40;99.90
18434;DHT22;9344;52.294;13.626;2022-12-11T10:51:10;-0.40;99.90
18434;DHT22;9344;52.294;13.626;2022-12-11T10:53:37;-0.40;99.90
18434;DHT22;9344;52.294;13.626;2022-12-11T10:56:05;-0.40;99.90
18434;DHT22;9344;52.294;13.626;2022-12-11T10:58:46;-0.40;99.90
18434;DHT22;9344;52.294;13.626;2022-12-11T11:01:20;-0.40;99.90
18434;DHT22;9344;52.294;13.626;2022-12-11T11:03:54;-0.40;99.90
18434;DHT22;9344;52.294;13.626;2022-12-11T11:06:22;-0.50;99.90
18434;DHT22;9344;52.294;13.626;2022-12-11T11:08:51;-0.40;99.90
18434;DHT22;9344;52.294;13.626;2022-12-11T11:11:24;-0.40;99.90
18434;DHT22;9344;52.294;13.626;2022-12-11T11:14:02;-0.40;99.90
18434;DHT22;9344;52.294;13.626;2022-12-11T11:16:31;-0.50;99.90
18434;DHT22;9344;52.294;13.626;2022-12-11T11:19:00;-0.50;99.90
18434;DHT22;9344;52.294;13.626;2022-12-11T11:21:26;-0.40;99.90
18434;DHT22;9344;52.294;13.626;2022-12-11T11:23:54;-0.40;99.90
18434;DHT22;9344;52.294;13.626;2022-12-11T11:26:21;-0.30;99.90
18434;DHT22;9344;52.294;13.626;2022-12-11T11:28:50;0.10;99.90
18434;DHT22;9344;52.294;13.626;2022-12-11T11:31:19;-0.30;99.90
18434;DHT22;9344;52.294;13.626;2022-12-11T11:33:53;0.10;99.90
18434;DHT22;9344;52.294;13.626;2022-12-11T11:36:23;-0.40;99.90
18434;DHT22;9344;52.294;13.626;2022-12-11T11:38:58;-0.30;99.90
18434;DHT22;9344;52.294;13.626;2022-12-11T11:41:33;-0.30;99.90
18434;DHT22;9344;52.294;13.626;2022-12-11T11:44:03;-0.20;99.90
18434;DHT22;9344;52.294;13.626;2022-12-11T11:46:33;-0.20;99.90
18434;DHT22;9344;52.294;13.626;2022-12-11T11:49:09;-0.20;99.90
18434;DHT22;9344;52.294;13.626;2022-12-11T11:51:42;-0.20;99.90
18434;DHT22;9344;52.294;13.626;2022-12-11T11:54:19;0.50;99.90
18434;DHT22;9344;52.294;13.626;2022-12-11T11:56:50;-0.20;99.90
18434;DHT22;9344;52.294;13.626;2022-12-11T11:59:24;-0.20;99.90
18434;DHT22;9344;52.294;13.626;2022-12-11T12:01:55;-0.10;99.90
18434;DHT22;9344;52.294;13.626;2022-12-11T12:04:32;0.10;99.90
18434;DHT22;9344;52.294;13.626;2022-12-11T12:07:10;-0.10;99.90
18434;DHT22;9344;52.294;13.626;2022-12-11T12:09:45;-0.10;99.90
18434;DHT22;9344;52.294;13.626;2022-12-11T12:12:18;0.00;99.90
18434;DHT22;9344;52.294;13.626;2022-12-11T12:15:01;-0.10;99.90
18434;DHT22;9344;52.294;13.626;2022-12-11T12:17:35;-0.10;99.90
18434;DHT22;9344;52.294;13.626;2022-12-11T12:20:14;-0.20;99.90
18434;DHT22;9344;52.294;13.626;2022-12-11T12:22:53;-0.30;99.90
18434;DHT22;9344;52.294;13.626;2022-12-11T12:25:25;-0.30;99.90
18434;DHT22;9344;52.294;13.626;2022-12-11T12:28:00;-0.20;99.90
18434;DHT22;9344;52.294;13.626;2022-12-11T12:30:34;-0.20;99.90
18434;DHT22;9344;52.294;13.626;2022-12-11T12:33:13;-0.20;99.90
18434;DHT22;9344;52.294;13.626;2022-12-11T12:35:50;-0.30;99.90
18434;DHT22;9344;52.294;13.626;2022-12-11T12:38:21;-0.30;99.90
18434;DHT22;9344;52.294;13.626;2022-12-11T12:40:55;-0.30;99.90
18434;DHT22;9344;52.294;13.626;2022-12-11T12:43:40;-0.30;99.90
18434;DHT22;9344;52.294;13.626;2022-12-11T12:46:18;-0.20;99.90
18434;DHT22;9344;52.294;13.626;2022-12-11T12:48:46;-0.20;99.90
18434;DHT22;9344;52.294;13.626;2022-12-11T12:51:15;-0.20;99.90
18434;DHT22;9344;52.294;13.626;2022-12-11T12:53:48;-0.20;99.90
18434;DHT22;9344;52.294;13.626;2022-12-11T12:56:19;-0.20;99.90
18434;DHT22;9344;52.294;13.626;2022-12-11T12:58:46;-0.20;99.90
18434;DHT22;9344;52.294;13.626;2022-12-11T13:01:17;0.60;99.90
18434;DHT22;9344;52.294;13.626;2022-12-11T13:03:54;-0.20;99.90
18434;DHT22;9344;52.294;13.626;2022-12-11T13:06:35;-0.20;99.90
18434;DHT22;9344;52.294;13.626;2022-12-11T13:09:12;-0.20;99.90
18434;DHT22;9344;52.294;13.626;2022-12-11T13:11:40;-0.10;99.90
18434;DHT22;9344;52.294;13.626;2022-12-11T13:14:22;-0.10;99.90
18434;DHT22;9344;52.294;13.626;2022-12-11T13:16:52;-0.20;99.90
18434;DHT22;9344;52.294;13.626;2022-12-11T13:19:32;-0.10;99.90
18434;DHT22;9344;52.294;13.626;2022-12-11T13:22:02;0.10;99.90
18434;DHT22;9344;52.294;13.626;2022-12-11T13:24:30;-0.20;99.90
18434;DHT22;9344;52.294;13.626;2022-12-11T13:27:08;-0.30;99.90
18434;DHT22;9344;52.294;13.626;2022-12-11T13:29:36;-0.20;99.90
18434;DHT22;9344;52.294;13.626;2022-12-11T13:32:20;-0.20;99.90
18434;DHT22;9344;52.294;13.626;2022-12-11T13:34:51;-0.30;99.90
18434;DHT22;9344;52.294;13.626;2022-12-11T13:37:25;-0.30;99.90
18434;DHT22;9344;52.294;13.626;2022-12-11T13:39:52;-0.30;99.90
18434;DHT22;9344;52.294;13.626;2022-12-11T13:42:23;0.10;99.90
18434;DHT22;9344;52.294;13.626;2022-12-11T13:44:52;-0.30;99.90
18434;DHT22;9344;52.294;13.626;2022-12-11T13:47:19;0.10;99.90
18434;DHT22;9344;52.294;13.626;2022-12-11T13:50:12;-0.20;99.90
18434;DHT22;9344;52.294;13.626;2022-12-11T13:52:52;-0.20;99.90
18434;DHT22;9344;52.294;13.626;2022-12-11T13:55:23;-0.10;99.90
18434;DHT22;9344;52.294;13.626;2022-12-11T13:57:50;-0.20;99.90
18434;DHT22;9344;52.294;13.626;2022-12-11T14:00:20;-0.30;99.90
18434;DHT22;9344;52.294;13.626;2022-12-11T14:02:47;-0.30;99.90
18434;DHT22;9344;52.294;13.626;2022-12-11T14:05:14;-0.30;99.90
18434;DHT22;9344;52.294;13.626;2022-12-11T14:07:46;-0.20;99.90
18434;DHT22;9344;52.294;13.626;2022-12-11T14:10:16;0.30;99.90
18434;DHT22;9344;52.294;13.626;2022-12-11T14:12:48;-0.20;99.90
18434;DHT22;9344;52.294;13.626;2022-12-11T14:15:17;-0.20;99.90
18434;DHT22;9344;52.294;13.626;2022-12-11T14:17:44;0.20;99.90
18434;DHT22;9344;52.294;13.626;2022-12-11T14:20:16;0.20;99.90
18434;DHT22;9344;52.294;13.626;2022-12-11T14:22:44;-0.20;99.90
18434;DHT22;9344;52.294;13.626;2022-12-11T14:25:20;-0.20;99.90
18434;DHT22;9344;52.294;13.626;2022-12-11T14:27:49;-0.20;99.90
18434;DHT22;9344;52.294;13.626;2022-12-11T14:30:21;-0.20;99.90
18434;DHT22;9344;52.294;13.626;2022-12-11T14:32:47;-0.20;99.90
18434;DHT22;9344;52.294;13.626;2022-12-11T14:35:22;-0.30;99.90
18434;DHT22;9344;52.294;13.626;2022-12-11T14:37:51;-0.30;99.90
18434;DHT22;9344;52.294;13.626;2022-12-11T14:40:21;-0.30;99.90
18434;DHT22;9344;52.294;13.626;2022-12-11T14:42:52;-0.30;99.90
18434;DHT22;9344;52.294;13.626;2022-12-11T14:45:22;-0.30;99.90
18434;DHT22;9344;52.294;13.626;2022-12-11T14:47:52;-0.30;99.90
18434;DHT22;9344;52.294;13.626;2022-12-11T14:50:22;-0.30;99.90
18434;DHT22;9344;52.294;13.626;2022-12-11T14:52:54;-0.30;99.90
18434;DHT22;9344;52.294;13.626;2022-12-11T14:55:24;-0.30;99.90
18434;DHT22;9344;52.294;13.626;2022-12-11T14:57:55;-0.30;99.90
18434;DHT22;9344;52.294;13.626;2022-12-11T15:00:24;-0.30;99.90
18434;DHT22;9344;52.294;13.626;2022-12-11T15:02:57;-0.30;99.90
18434;DHT22;9344;52.294;13.626;2022-12-11T15:05:24;-0.40;99.90
18434;DHT22;9344;52.294;13.626;2022-12-11T15:07:58;-0.30;99.90
18434;DHT22;9344;52.294;13.626;2022-12-11T15:10:29;-0.40;99.90
18434;DHT22;9344;52.294;13.626;2022-12-11T15:12:58;-0.40;99.90
18434;DHT22;9344;52.294;13.626;2022-12-11T15:15:27;-0.10;99.90
18434;DHT22;9344;52.294;13.626;2022-12-11T15:17:55;-0.40;99.90
18434;DHT22;9344;52.294;13.626;2022-12-11T15:20:26;-0.40;99.90
18434;DHT22;9344;52.294;13.626;2022-12-11T15:22:56;-0.40;99.90
18434;DHT22;9344;52.294;13.626;2022-12-11T15:25:25;-0.40;99.90
18434;DHT22;9344;52.294;13.626;2022-12-11T15:27:54;-0.40;99.90
18434;DHT22;9344;52.294;13.626;2022-12-11T15:30:26;-0.20;99.90
18434;DHT22;9344;52.294;13.626;2022-12-11T15:33:02;-0.40;99.90
18434;DHT22;9344;52.294;13.626;2022-12-11T15:35:28;-0.50;99.90
18434;DHT22;9344;52.294;13.626;2022-12-11T15:37:57;-0.40;99.90
18434;DHT22;9344;52.294;13.626;2022-12-11T15:40:24;-0.40;99.90
18434;DHT22;9344;52.294;13.626;2022-12-11T15:42:52;-0.20;99.90
18434;DHT22;9344;52.294;13.626;2022-12-11T15:45:21;-0.50;99.90
18434;DHT22;9344;52.294;13.626;2022-12-11T15:47:49;-0.20;99.90
18434;DHT22;9344;52.294;13.626;2022-12-11T15:50:18;-0.60;99.90
18434;DHT22;9344;52.294;13.626;2022-12-11T15:52:45;-0.40;99.90